Time;durP1;ratioP1;P1;durP2;ratioP2;P2;SDS_P1;SDS_P2;PMS_P1;PMS_P2;Temp;Humidity;BMP_temperature;BMP_pressure;BME280_temperature;BME280_humidity;BME280_pressure;Samples;Min_cycle;Max_cycle;Signal;HPM_P1;HPM_P2
2022/10/08 00:01:03;;;;;;;4.28;1.30;;;12.70;99.90;;;;;;5106824;28;20507;-82
2022/10/08 00:03:36;;;;;;;10.30;1.55;;;12.70;99.90;;;;;;5107293;28;20045;-83
2022/10/08 00:06:11;;;;;;;3.92;1.40;;;12.70;99.90;;;;;;5090268;28;20120;-83
2022/10/08 00:08:40;;;;;;;10.30;1.70;;;12.70;99.90;;;;;;5107127;28;20512;-83
2022/10/08 00:11:17;;;;;;;5.10;1.50;;;12.80;99.90;;;;;;5090227;28;20056;-83
2022/10/08 00:13:46;;;;;;;7.93;1.65;;;12.80;99.90;;;;;;5106925;28;20602;-83
2022/10/08 00:16:20;;;;;;;5.03;1.20;;;12.80;99.90;;;;;;5089979;28;20416;-83
2022/10/08 00:18:49;;;;;;;8.32;1.77;;;12.80;99.90;;;;;;5090341;28;20527;-83
2022/10/08 00:21:26;;;;;;;4.80;1.30;;;12.80;99.90;;;;;;5089879;28;20512;-83
2022/10/08 00:23:53;;;;;;;5.50;1.20;;;12.80;99.90;;;;;;5090134;28;20036;-83
2022/10/08 00:26:23;;;;;;;3.85;1.30;;;12.80;99.90;;;;;;5073278;28;20037;-83
2022/10/08 00:28:51;;;;;;;6.18;1.20;;;12.80;99.90;;;;;;5089858;28;20123;-83
2022/10/08 00:31:24;;;;;;;6.53;1.42;;;12.80;99.90;;;;;;5089816;28;20109;-83
2022/10/08 00:33:53;;;;;;;4.30;1.40;;;12.80;99.90;;;;;;5090077;28;20044;-83
2022/10/08 00:36:21;;;;;;;4.35;1.33;;;12.80;99.90;;;;;;5096751;28;20043;-83
2022/10/08 00:38:48;;;;;;;6.80;1.10;;;12.80;99.90;;;;;;5110854;28;20039;-82
2022/10/08 00:41:21;;;;;;;6.25;1.30;;;12.70;99.90;;;;;;5126571;28;20067;-82
2022/10/08 00:43:51;;;;;;;5.82;1.20;;;12.70;99.90;;;;;;5127289;28;20039;-83
2022/10/08 00:46:35;;;;;;;9.65;1.48;;;12.70;99.90;;;;;;5126445;28;20138;-82
2022/10/08 00:49:18;;;;;;;5.53;1.33;;;12.80;99.90;;;;;;5109289;28;20039;-83
2022/10/08 00:51:50;;;;;;;3.53;1.30;;;12.70;99.90;;;;;;5090037;28;20052;-83
2022/10/08 00:54:19;;;;;;;2.58;1.10;;;12.70;99.90;;;;;;5089258;28;20051;-82
2022/10/08 00:56:53;;;;;;;4.78;1.33;;;12.70;99.90;;;;;;5106158;28;20049;-83
2022/10/08 00:59:20;;;;;;;5.53;1.33;;;12.70;99.90;;;;;;5073092;28;20048;-82
2022/10/08 01:01:47;;;;;;;4.35;1.30;;;12.70;99.90;;;;;;5089774;28;20127;-83
2022/10/08 01:04:14;;;;;;;4.00;1.23;;;12.70;99.90;;;;;;5092708;28;20040;-83
2022/10/08 01:06:44;;;;;;;7.35;1.40;;;12.60;99.90;;;;;;5092667;28;20071;-83
2022/10/08 01:09:30;;;;;;;3.10;1.17;;;12.60;99.90;;;;;;5109354;28;20035;-83
2022/10/08 01:11:56;;;;;;;;;;;12.60;99.90;;;;;;5126590;28;20048;-82
2022/10/08 01:14:53;;;;;;;5.63;1.20;;;12.60;99.90;;;;;;5109330;28;19920;-83
2022/10/08 01:17:23;;;;;;;5.20;1.15;;;12.50;99.90;;;;;;5109246;28;20388;-83
2022/10/08 01:19:53;;;;;;;3.97;1.40;;;12.60;99.90;;;;;;5109747;28;20055;-82
2022/10/08 01:22:51;;;;;;;3.17;1.23;;;12.50;99.90;;;;;;5109450;28;20094;-83
2022/10/08 01:25:32;;;;;;;5.47;1.40;;;12.50;99.90;;;;;;5109119;28;20555;-83
2022/10/08 01:28:29;;;;;;;5.05;1.42;;;12.50;99.90;;;;;;5109309;28;20385;-83
2022/10/08 01:31:03;;;;;;;3.17;1.20;;;12.50;99.90;;;;;;5109472;28;20514;-83
2022/10/08 01:34:04;;;;;;;4.97;1.23;;;12.40;99.90;;;;;;5109497;28;20451;-83
2022/10/08 01:36:38;;;;;;;6.03;1.23;;;12.30;99.90;;;;;;5126331;28;20036;-83
2022/10/08 01:39:09;;;;;;;3.97;1.60;;;12.30;99.90;;;;;;5108974;28;20411;-83
2022/10/08 01:41:37;;;;;;;6.00;1.30;;;12.30;99.90;;;;;;5109240;28;20040;-83
2022/10/08 01:44:11;;;;;;;6.28;1.20;;;12.20;99.90;;;;;;5092568;28;20067;-83
2022/10/08 01:46:41;;;;;;;5.50;0.90;;;12.20;99.90;;;;;;5125964;28;20403;-83
2022/10/08 01:49:14;;;;;;;2.78;1.02;;;12.20;99.90;;;;;;5125438;28;20098;-83
2022/10/08 01:51:56;;;;;;;4.45;1.27;;;12.20;99.90;;;;;;5109127;28;20133;-83
2022/10/08 01:54:26;;;;;;;3.85;1.42;;;12.10;99.90;;;;;;5108851;28;20040;-83
2022/10/08 01:56:53;;;;;;;7.28;1.30;;;12.10;99.90;;;;;;5125823;28;20411;-83
2022/10/08 01:59:26;;;;;;;3.85;1.10;;;12.10;99.90;;;;;;5088922;28;20039;-83
2022/10/08 02:02:05;;;;;;;5.93;1.15;;;12.00;99.90;;;;;;5092142;28;20201;-84
2022/10/08 02:04:32;;;;;;;4.75;1.38;;;12.00;99.90;;;;;;5092281;28;20179;-83
2022/10/08 02:07:32;;;;;;;5.60;1.48;;;12.00;99.90;;;;;;5092572;28;20123;-83
2022/10/08 02:10:04;;;;;;;4.68;1.08;;;12.00;99.90;;;;;;5101188;28;20044;-83
2022/10/08 02:12:31;;;;;;;7.85;1.60;;;11.90;99.90;;;;;;5112371;28;20381;-83
2022/10/08 02:14:58;;;;;;;5.45;1.10;;;11.90;99.90;;;;;;5079447;28;20096;-83
2022/10/08 02:17:52;;;;;;;8.52;1.40;;;11.90;99.90;;;;;;5079446;28;20040;-83
2022/10/08 02:20:37;;;;;;;6.40;1.35;;;11.80;99.90;;;;;;5111949;28;20404;-84
2022/10/08 02:23:19;;;;;;;6.10;1.15;;;11.70;99.90;;;;;;5129548;28;20039;-83
2022/10/08 02:25:52;;;;;;;2.92;1.10;;;11.70;99.90;;;;;;5112235;28;20062;-84
2022/10/08 02:29:13;;;;;;;6.03;1.40;;;11.70;99.90;;;;;;5129304;28;20123;-84
2022/10/08 02:31:48;;;;;;;3.03;1.15;;;11.60;99.90;;;;;;5090621;28;20504;-83
2022/10/08 02:34:29;;;;;;;5.37;1.33;;;11.60;99.90;;;;;;5123210;28;20060;-84
2022/10/08 02:37:06;;;;;;;8.02;1.10;;;11.50;99.90;;;;;;5112175;28;20047;-84
2022/10/08 02:39:35;;;;;;;4.80;1.30;;;11.50;99.90;;;;;;5112060;28;20389;-83
2022/10/08 02:42:07;;;;;;;3.58;0.93;;;11.40;99.90;;;;;;5111828;28;20040;-83
2022/10/08 02:45:09;;;;;;;3.22;1.00;;;11.40;99.90;;;;;;5111942;28;20127;-84
2022/10/08 02:47:38;;;;;;;6.38;1.20;;;11.40;99.90;;;;;;5111746;28;20812;-84
2022/10/08 02:50:11;;;;;;;6.03;1.15;;;11.30;99.90;;;;;;5112367;28;20044;-84
2022/10/08 02:52:41;;;;;;;3.15;1.10;;;11.30;99.90;;;;;;5128745;28;20035;-84
2022/10/08 02:55:25;;;;;;;3.47;0.98;;;11.20;99.90;;;;;;5128880;28;20035;-83
2022/10/08 02:58:12;;;;;;;2.92;1.02;;;11.20;99.90;;;;;;5111674;28;20047;-83
2022/10/08 03:01:05;;;;;;;4.85;1.33;;;11.20;99.90;;;;;;5111180;28;20048;-84
2022/10/08 03:03:36;;;;;;;5.75;1.40;;;11.10;99.90;;;;;;5111093;28;20493;-84
2022/10/08 03:06:06;;;;;;;4.78;1.40;;;11.20;99.90;;;;;;5111718;28;20047;-83
2022/10/08 03:08:35;;;;;;;3.33;1.17;;;11.10;99.90;;;;;;5111551;28;20036;-83
2022/10/08 03:11:03;;;;;;;5.00;1.50;;;11.10;99.90;;;;;;5111243;28;20066;-83
2022/10/08 03:13:35;;;;;;;2.97;1.30;;;11.10;99.90;;;;;;5084121;28;20040;-84
2022/10/08 03:16:06;;;;;;;7.47;1.50;;;11.10;99.90;;;;;;5091131;28;20478;-83
2022/10/08 03:18:34;;;;;;;5.03;1.60;;;11.00;99.90;;;;;;5091260;28;20089;-84
2022/10/08 03:21:01;;;;;;;2.75;1.38;;;11.00;99.90;;;;;;5074691;28;20505;-84
2022/10/08 03:23:28;;;;;;;4.32;1.52;;;10.90;99.90;;;;;;5060972;28;20485;-84
2022/10/08 03:25:55;;;;;;;4.00;1.40;;;10.90;99.90;;;;;;5074531;28;20071;-84
2022/10/08 03:28:22;;;;;;;4.68;1.50;;;10.90;99.90;;;;;;5074405;28;20052;-84
2022/10/08 03:30:48;;;;;;;4.28;1.50;;;10.90;99.90;;;;;;5107018;28;20079;-84
2022/10/08 03:33:15;;;;;;;6.47;1.65;;;10.90;99.90;;;;;;5094489;28;20502;-83
2022/10/08 03:35:45;;;;;;;7.28;1.80;;;10.90;99.90;;;;;;5074258;28;20044;-83
2022/10/08 03:38:14;;;;;;;3.55;1.58;;;10.90;99.90;;;;;;5110804;28;20127;-83
2022/10/08 03:40:42;;;;;;;7.10;1.98;;;10.90;99.90;;;;;;5110682;28;20071;-83
2022/10/08 03:43:08;;;;;;;7.75;1.88;;;10.80;99.90;;;;;;5094249;28;20495;-84
2022/10/08 03:45:35;;;;;;;4.57;2.00;;;10.90;99.90;;;;;;5093867;28;20093;-83
2022/10/08 03:48:02;;;;;;;10.30;2.08;;;10.80;99.90;;;;;;5093956;28;20042;-83
2022/10/08 03:50:28;;;;;;;5.22;1.77;;;10.80;99.90;;;;;;5110643;28;20042;-84
2022/10/08 03:52:55;;;;;;;4.35;1.77;;;10.80;99.90;;;;;;5093915;28;20048;-84
2022/10/08 03:55:22;;;;;;;4.05;1.70;;;10.70;99.90;;;;;;5087340;28;20040;-84
2022/10/08 03:57:48;;;;;;;5.90;2.28;;;10.70;99.90;;;;;;5074020;28;20048;-84
2022/10/08 04:00:16;;;;;;;5.15;1.85;;;10.70;99.90;;;;;;5057135;28;20043;-83
2022/10/08 04:02:47;;;;;;;8.60;2.38;;;10.70;99.90;;;;;;5073434;28;20052;-84
2022/10/08 04:05:14;;;;;;;5.53;1.98;;;10.70;99.90;;;;;;5077031;28;20046;-84
2022/10/08 04:07:40;;;;;;;5.07;1.63;;;10.70;99.90;;;;;;5093595;28;20413;-84
2022/10/08 04:10:07;;;;;;;8.13;2.47;;;10.70;99.90;;;;;;5077407;28;20483;-83
2022/10/08 04:12:34;;;;;;;9.48;1.92;;;10.70;99.90;;;;;;5093999;28;20047;-83
2022/10/08 04:15:01;;;;;;;11.10;2.08;;;10.70;99.90;;;;;;5077207;28;20051;-83
2022/10/08 04:17:27;;;;;;;5.13;1.80;;;10.70;99.90;;;;;;5092998;28;20071;-84
2022/10/08 04:19:56;;;;;;;11.30;2.17;;;10.70;99.90;;;;;;5093342;28;20040;-84
2022/10/08 04:22:22;;;;;;;4.20;1.75;;;10.70;99.90;;;;;;5093611;28;20564;-83
2022/10/08 04:24:49;;;;;;;7.85;1.80;;;10.70;99.90;;;;;;5092545;28;20134;-84
2022/10/08 04:27:16;;;;;;;5.38;1.90;;;10.70;99.90;;;;;;5109852;28;20036;-83
2022/10/08 04:29:42;;;;;;;6.10;1.63;;;10.70;99.90;;;;;;5110159;28;20373;-84
2022/10/08 04:32:09;;;;;;;7.63;1.90;;;10.70;99.90;;;;;;5093283;28;20036;-84
2022/10/08 04:34:36;;;;;;;6.35;2.00;;;10.70;99.90;;;;;;5093558;28;20504;-84
2022/10/08 04:37:02;;;;;;;5.90;1.80;;;10.60;99.90;;;;;;5110324;28;20028;-84
2022/10/08 04:39:29;;;;;;;5.93;2.03;;;10.60;99.90;;;;;;5126879;28;20101;-84
2022/10/08 04:41:56;;;;;;;8.40;2.15;;;10.60;99.90;;;;;;5076593;28;20040;-84
2022/10/08 04:44:22;;;;;;;5.38;2.03;;;10.50;99.90;;;;;;5109884;28;20065;-84
2022/10/08 04:46:49;;;;;;;5.88;1.75;;;10.50;99.90;;;;;;5076250;28;20092;-84
2022/10/08 04:49:18;;;;;;;5.95;1.80;;;10.50;99.90;;;;;;5076164;28;20032;-84
2022/10/08 04:51:44;;;;;;;9.45;1.60;;;10.50;99.90;;;;;;5109469;28;20109;-83
2022/10/08 04:54:11;;;;;;;7.18;2.03;;;10.50;99.90;;;;;;5092996;28;20035;-83
2022/10/08 04:56:38;;;;;;;3.55;1.48;;;10.50;99.90;;;;;;5109785;28;20081;-84
2022/10/08 04:59:05;;;;;;;5.00;1.52;;;10.40;99.90;;;;;;5089410;28;20040;-84
2022/10/08 05:01:31;;;;;;;3.25;1.25;;;10.40;99.90;;;;;;5075868;28;20052;-84
2022/10/08 05:04:01;;;;;;;4.38;1.48;;;10.30;99.90;;;;;;5093454;28;20047;-84
2022/10/08 05:06:30;;;;;;;7.28;1.77;;;10.30;99.90;;;;;;5109389;28;20036;-84
2022/10/08 05:09:01;;;;;;;4.03;1.70;;;10.30;99.90;;;;;;5109895;28;20040;-84
2022/10/08 05:11:28;;;;;;;6.28;1.50;;;10.30;99.90;;;;;;5109290;28;20040;-84
2022/10/08 05:13:56;;;;;;;5.82;1.85;;;10.30;99.90;;;;;;5125852;28;20488;-84
2022/10/08 05:16:24;;;;;;;5.85;1.63;;;10.20;99.90;;;;;;5092562;28;20065;-84
2022/10/08 05:18:51;;;;;;;6.55;1.60;;;10.20;99.90;;;;;;5075814;28;20048;-84
2022/10/08 05:21:24;;;;;;;5.25;1.73;;;10.20;99.90;;;;;;5109450;28;20036;-84
2022/10/08 05:23:56;;;;;;;9.65;2.15;;;10.20;99.90;;;;;;5109036;28;20036;-84
2022/10/08 05:26:26;;;;;;;9.30;1.65;;;10.20;99.90;;;;;;5125966;28;20036;-84
2022/10/08 05:28:55;;;;;;;4.15;1.42;;;10.20;99.90;;;;;;5109092;28;20150;-83
2022/10/08 05:31:24;;;;;;;4.43;1.40;;;10.20;99.90;;;;;;5125547;28;20075;-84
2022/10/08 05:33:51;;;;;;;5.20;1.50;;;10.10;99.90;;;;;;5092110;28;20104;-83
2022/10/08 05:36:27;;;;;;;8.18;1.50;;;10.20;99.90;;;;;;5129149;28;20154;-84
2022/10/08 05:38:57;;;;;;;9.38;1.88;;;10.30;99.90;;;;;;5112850;28;20415;-84
2022/10/08 05:41:27;;;;;;;9.27;1.50;;;10.20;99.90;;;;;;5096422;28;20044;-84
2022/10/08 05:43:55;;;;;;;7.93;1.90;;;10.20;99.90;;;;;;5112842;28;20036;-84
2022/10/08 05:46:24;;;;;;;7.40;1.80;;;10.20;99.90;;;;;;5096453;28;20048;-84
2022/10/08 05:48:55;;;;;;;12.90;2.45;;;10.20;99.90;;;;;;5129578;28;20512;-83
2022/10/08 05:51:22;;;;;;;6.65;1.83;;;10.20;99.90;;;;;;5089684;28;20052;-84
2022/10/08 05:53:51;;;;;;;8.63;2.08;;;10.20;99.90;;;;;;5092393;28;20169;-84
2022/10/08 05:56:20;;;;;;;7.70;1.65;;;10.20;99.90;;;;;;5109347;28;20407;-84
2022/10/08 05:58:48;;;;;;;6.85;1.90;;;10.20;99.90;;;;;;5092522;28;20047;-84
2022/10/08 06:01:20;;;;;;;8.82;1.88;;;10.20;99.90;;;;;;5095203;28;20060;-84
2022/10/08 06:03:49;;;;;;;3.88;1.50;;;10.20;99.90;;;;;;5112436;28;20040;-84
2022/10/08 06:06:16;;;;;;;7.60;2.03;;;10.20;99.90;;;;;;5095877;28;20404;-84
2022/10/08 06:08:43;;;;;;;4.57;1.60;;;10.20;99.90;;;;;;5095847;28;20118;-84
2022/10/08 06:11:10;;;;;;;7.95;1.80;;;10.20;99.90;;;;;;5096357;28;20069;-84
2022/10/08 06:13:37;;;;;;;6.20;1.73;;;10.20;99.90;;;;;;5089070;28;20044;-84
2022/10/08 06:16:09;;;;;;;4.32;1.45;;;10.20;99.90;;;;;;5084126;28;20097;-84
2022/10/08 06:18:38;;;;;;;4.72;1.42;;;10.20;99.90;;;;;;5092844;28;20051;-84
2022/10/08 06:21:07;;;;;;;6.47;1.40;;;10.30;99.90;;;;;;5111513;28;20105;-84
2022/10/08 06:23:35;;;;;;;4.65;1.33;;;10.20;99.90;;;;;;5112871;28;20048;-84
2022/10/08 06:26:10;;;;;;;4.32;1.25;;;10.30;99.90;;;;;;5112313;28;20032;-84
2022/10/08 06:28:37;;;;;;;;;;;10.20;99.90;;;;;;5096427;28;20044;-85
2022/10/08 06:31:05;;;;;;;6.15;1.38;;;10.30;99.90;;;;;;5112307;28;19939;-85
2022/10/08 06:33:33;;;;;;;9.95;2.17;;;9.60;99.90;;;;;;5095467;28;20040;-85
2022/10/08 06:36:07;;;;;;;6.80;1.23;;;10.20;99.90;;;;;;5085113;28;20051;-84
2022/10/08 06:38:34;;;;;;;13.95;1.60;;;10.30;99.90;;;;;;5106773;28;20044;-85
2022/10/08 06:41:00;;;;;;;4.22;1.50;;;10.30;99.90;;;;;;5074826;28;20040;-85
2022/10/08 06:43:27;;;;;;;4.28;1.15;;;10.30;99.90;;;;;;5098085;28;20032;-85
2022/10/08 06:45:55;;;;;;;8.75;1.67;;;10.30;99.90;;;;;;5084673;28;20044;-85
2022/10/08 06:48:22;;;;;;;3.03;1.15;;;10.40;99.90;;;;;;5095150;28;20488;-85
2022/10/08 06:51:00;;;;;;;4.45;1.35;;;10.40;99.90;;;;;;5076994;28;20063;-85
2022/10/08 06:53:27;;;;;;;6.80;1.35;;;10.40;99.90;;;;;;5100333;28;20542;-85
2022/10/08 06:55:58;;;;;;;7.45;1.67;;;10.50;99.90;;;;;;5102796;28;20444;-85
2022/10/08 06:58:25;;;;;;;8.55;1.30;;;10.50;99.90;;;;;;5078660;28;20044;-85
2022/10/08 07:01:13;;;;;;;5.32;1.02;;;10.60;99.90;;;;;;5112622;28;20094;-84
2022/10/08 07:03:40;;;;;;;5.50;1.13;;;10.60;99.90;;;;;;5098186;28;20036;-85
2022/10/08 07:06:09;;;;;;;6.25;1.23;;;10.70;99.90;;;;;;5093686;28;20040;-85
2022/10/08 07:08:37;;;;;;;6.38;1.10;;;10.80;99.90;;;;;;5111727;28;20039;-85
2022/10/08 07:11:15;;;;;;;4.72;1.10;;;10.80;99.90;;;;;;5094542;28;20035;-84
2022/10/08 07:13:43;;;;;;;5.95;1.05;;;10.80;99.90;;;;;;5101744;28;20039;-84
2022/10/08 07:16:12;;;;;;;5.13;1.15;;;10.90;99.90;;;;;;5078039;28;20075;-85
2022/10/08 07:18:39;;;;;;;7.65;1.65;;;10.90;99.90;;;;;;5104903;28;20496;-85
2022/10/08 07:21:09;;;;;;;5.50;1.35;;;10.90;99.90;;;;;;5094882;28;20050;-85
2022/10/08 07:23:36;;;;;;;9.82;1.52;;;11.00;99.90;;;;;;5094791;28;20489;-84
2022/10/08 07:26:08;;;;;;;5.45;1.30;;;11.10;99.90;;;;;;5092915;28;20104;-84
2022/10/08 07:28:46;;;;;;;4.93;1.20;;;11.20;99.90;;;;;;5120492;28;20028;-85
2022/10/08 07:31:16;;;;;;;5.40;1.10;;;11.20;99.90;;;;;;5127924;28;20032;-84
2022/10/08 07:33:43;;;;;;;6.18;1.00;;;11.30;99.90;;;;;;5128224;28;20054;-84
2022/10/08 07:36:12;;;;;;;8.48;1.10;;;11.40;99.90;;;;;;5077721;28;20478;-84
2022/10/08 07:38:39;;;;;;;4.47;0.88;;;11.50;99.90;;;;;;5111239;28;20093;-84
2022/10/08 07:41:07;;;;;;;6.07;0.90;;;11.60;99.90;;;;;;5094088;28;20427;-84
2022/10/08 07:43:35;;;;;;;3.63;0.70;;;11.60;99.90;;;;;;5110831;28;20040;-84
2022/10/08 07:46:04;;;;;;;6.10;1.15;;;11.60;99.90;;;;;;5110631;28;20044;-84
2022/10/08 07:48:31;;;;;;;4.60;0.90;;;11.50;99.90;;;;;;5127451;28;20036;-84
2022/10/08 07:51:25;;;;;;;3.20;0.90;;;11.50;99.90;;;;;;5094019;28;20040;-84
2022/10/08 07:53:52;;;;;;;3.92;0.90;;;11.50;99.90;;;;;;5108557;28;20134;-84
2022/10/08 07:56:20;;;;;;;2.97;0.85;;;11.50;99.90;;;;;;5111260;28;20630;-84
2022/10/08 07:58:47;;;;;;;5.22;1.10;;;11.50;99.90;;;;;;5110593;28;20075;-84
2022/10/08 08:01:21;;;;;;;4.35;0.90;;;11.50;99.90;;;;;;5094050;28;20132;-84
2022/10/08 08:03:54;;;;;;;6.60;1.45;;;11.60;99.90;;;;;;5110721;28;20040;-84
2022/10/08 08:06:21;;;;;;;5.97;1.30;;;11.60;99.90;;;;;;5110246;28;20105;-84
2022/10/08 08:08:48;;;;;;;5.38;1.02;;;11.60;99.90;;;;;;5110613;28;20051;-85
2022/10/08 08:11:17;;;;;;;4.88;0.93;;;11.60;99.90;;;;;;5093420;28;20039;-85
2022/10/08 08:13:44;;;;;;;3.78;0.90;;;11.60;99.90;;;;;;5110335;28;20256;-84
2022/10/08 08:16:16;;;;;;;6.63;0.90;;;11.70;99.90;;;;;;5093574;28;20361;-85
2022/10/08 08:18:45;;;;;;;2.90;0.75;;;11.80;99.90;;;;;;5110312;28;20043;-85
2022/10/08 08:21:17;;;;;;;5.45;0.88;;;11.70;99.90;;;;;;5126652;28;20041;-88
2022/10/08 08:23:47;;;;;;;2.40;0.95;;;11.80;99.90;;;;;;5110532;28;20479;-83
2022/10/08 08:26:21;;;;;;;2.35;0.70;;;11.80;99.90;;;;;;5110236;28;20048;-83
2022/10/08 08:28:53;;;;;;;4.82;1.27;;;11.80;99.90;;;;;;5109976;28;20036;-83
2022/10/08 08:31:25;;;;;;;6.38;1.08;;;11.90;99.90;;;;;;5093521;28;20039;-83
2022/10/08 08:33:55;;;;;;;4.65;1.13;;;11.90;99.90;;;;;;5110254;28;20137;-83
2022/10/08 08:36:28;;;;;;;8.45;1.00;;;11.90;99.90;;;;;;5109508;28;20040;-82
2022/10/08 08:38:55;;;;;;;10.32;1.08;;;12.10;99.90;;;;;;5109752;28;20083;-83
2022/10/08 08:41:34;;;;;;;4.55;0.95;;;12.10;99.90;;;;;;5109352;28;20044;-83
2022/10/08 08:44:09;;;;;;;4.43;0.90;;;12.20;99.90;;;;;;5109462;28;20126;-83
2022/10/08 08:46:39;;;;;;;4.18;0.90;;;12.40;99.90;;;;;;5109598;28;20039;-83
2022/10/08 08:49:27;;;;;;;7.07;0.88;;;12.40;99.90;;;;;;5109559;28;20032;-83
2022/10/08 08:51:56;;;;;;;5.43;1.13;;;12.50;99.90;;;;;;5126496;28;20058;-83
2022/10/08 08:54:23;;;;;;;5.10;0.90;;;12.60;99.90;;;;;;5109611;28;20044;-83
2022/10/08 08:56:52;;;;;;;5.68;0.95;;;12.60;99.90;;;;;;5093216;28;20096;-83
2022/10/08 08:59:30;;;;;;;5.63;1.05;;;12.70;99.90;;;;;;5126267;28;20047;-83
2022/10/08 09:02:02;;;;;;;7.05;1.08;;;12.90;99.90;;;;;;5109210;28;20916;-83
2022/10/08 09:04:41;;;;;;;8.52;1.45;;;12.90;99.90;;;;;;5109860;28;20036;-83
2022/10/08 09:07:13;;;;;;;4.50;0.90;;;13.00;99.90;;;;;;5126509;28;20089;-83
2022/10/08 09:09:49;;;;;;;9.15;1.10;;;13.10;99.90;;;;;;5108657;28;20032;-83
2022/10/08 09:12:21;;;;;;;7.05;0.90;;;13.20;99.90;;;;;;5109228;28;20044;-83
2022/10/08 09:14:56;;;;;;;1.60;0.55;;;13.30;99.90;;;;;;5108983;28;20075;-83
2022/10/08 09:17:37;;;;;;;6.28;0.70;;;13.30;99.90;;;;;;5125775;28;20100;-83
2022/10/08 09:20:05;;;;;;;4.20;0.70;;;13.30;99.90;;;;;;5109398;28;20044;-83
2022/10/08 09:22:38;;;;;;;5.88;0.98;;;13.30;99.90;;;;;;5092529;28;20036;-83
2022/10/08 09:25:06;;;;;;;3.38;0.80;;;13.20;99.90;;;;;;5126221;28;20082;-83
2022/10/08 09:27:54;;;;;;;3.95;0.90;;;13.10;99.90;;;;;;5109211;28;20040;-83
2022/10/08 09:30:41;;;;;;;3.92;0.90;;;13.00;99.90;;;;;;5108942;28;20131;-83
2022/10/08 09:33:23;;;;;;;6.05;1.00;;;13.00;99.90;;;;;;5125889;28;20035;-83
2022/10/08 09:35:52;;;;;;;2.70;0.90;;;12.90;99.90;;;;;;5109147;28;20036;-83
2022/10/08 09:38:34;;;;;;;3.95;0.82;;;13.00;99.90;;;;;;5108798;28;20044;-83
2022/10/08 09:41:15;;;;;;;10.48;1.00;;;13.10;99.90;;;;;;5109177;28;20040;-83
2022/10/08 09:43:43;;;;;;;4.38;0.90;;;13.20;99.90;;;;;;5109474;28;20047;-83
2022/10/08 09:46:31;;;;;;;2.35;0.75;;;13.30;99.90;;;;;;5108484;28;20046;-83
2022/10/08 09:49:30;;;;;;;5.35;1.08;;;13.40;99.90;;;;;;5109215;28;20401;-83
2022/10/08 09:52:01;;;;;;;5.10;0.90;;;13.60;99.90;;;;;;5109361;28;20096;-83
2022/10/08 09:54:32;;;;;;;3.10;0.70;;;13.70;99.90;;;;;;5109046;28;20036;-83
2022/10/08 09:57:00;;;;;;;3.65;0.80;;;13.70;99.90;;;;;;5109066;28;20044;-83
2022/10/08 09:59:32;;;;;;;7.20;0.80;;;13.80;99.90;;;;;;5081186;28;20032;-83
2022/10/08 10:01:58;;;;;;;5.28;0.93;;;13.90;99.90;;;;;;5105650;28;20052;-83
2022/10/08 10:04:33;;;;;;;3.25;0.80;;;13.90;99.90;;;;;;5071993;28;20039;-83
2022/10/08 10:07:01;;;;;;;6.53;0.55;;;13.90;99.90;;;;;;5099190;28;20032;-83
2022/10/08 10:09:38;;;;;;;3.92;0.70;;;14.00;99.90;;;;;;5074812;28;20488;-83
2022/10/08 10:12:17;;;;;;;7.38;0.57;;;14.20;99.90;;;;;;5109350;28;20047;-83
2022/10/08 10:15:00;;;;;;;5.65;0.77;;;14.40;99.90;;;;;;5101933;28;20040;-83
2022/10/08 10:17:34;;;;;;;4.65;0.80;;;14.30;99.90;;;;;;5098816;28;20390;-83
2022/10/08 10:20:19;;;;;;;14.20;0.73;;;14.20;99.90;;;;;;5092715;28;20514;-83
2022/10/08 10:23:13;;;;;;;2.07;0.70;;;14.00;99.90;;;;;;5104719;28;20043;-83
2022/10/08 10:25:43;;;;;;;3.55;0.60;;;13.90;99.90;;;;;;5105939;28;20282;-83
2022/10/08 10:28:27;;;;;;;2.00;0.57;;;13.80;99.90;;;;;;5105805;28;20036;-82
2022/10/08 10:31:11;;;;;;;4.57;1.08;;;13.70;99.90;;;;;;5106604;28;20507;-82
2022/10/08 10:33:59;;;;;;;8.38;0.90;;;13.60;99.90;;;;;;5095129;28;20123;-82
2022/10/08 10:36:30;;;;;;;3.42;0.70;;;13.60;99.90;;;;;;5106965;28;20040;-82
2022/10/08 10:39:30;;;;;;;5.35;0.75;;;13.50;99.90;;;;;;5109127;28;20042;-82
2022/10/08 10:42:07;;;;;;;5.10;0.88;;;13.40;99.90;;;;;;5112231;28;20389;-82
2022/10/08 10:44:47;;;;;;;1.50;0.47;;;13.30;99.90;;;;;;5112131;28;20036;-82
2022/10/08 10:47:14;;;;;;;4.30;0.80;;;13.10;99.90;;;;;;5112208;28;20123;-83
2022/10/08 10:49:42;;;;;;;11.60;1.02;;;13.10;99.90;;;;;;5095054;28;20452;-83
2022/10/08 10:52:33;;;;;;;5.68;0.90;;;13.30;99.90;;;;;;5095477;28;20048;-82
2022/10/08 10:55:38;;;;;;;5.47;0.80;;;13.40;99.90;;;;;;5111972;28;20404;-82
2022/10/08 10:58:41;;;;;;;2.83;0.70;;;13.70;99.90;;;;;;5112048;28;20044;-83
2022/10/08 11:01:19;;;;;;;3.55;0.80;;;13.90;99.90;;;;;;5108341;28;20039;-83
2022/10/08 11:04:13;;;;;;;6.72;0.90;;;14.00;99.90;;;;;;5128902;28;20503;-83
2022/10/08 11:06:50;;;;;;;8.85;2.90;;;14.20;99.90;;;;;;5111825;28;20043;-83
2022/10/08 11:10:01;;;;;;;6.57;0.73;;;14.40;99.90;;;;;;5128985;28;20506;-83
2022/10/08 11:12:46;;;;;;;5.75;0.95;;;14.50;99.90;;;;;;5110427;28;20142;-83
2022/10/08 11:15:30;;;;;;;5.07;1.13;;;14.60;99.90;;;;;;5092190;28;20048;-83
2022/10/08 11:18:29;;;;;;;6.80;1.02;;;14.80;99.90;;;;;;5110208;28;20140;-82
2022/10/08 11:21:04;;;;;;;7.30;1.00;;;14.90;99.90;;;;;;5106815;28;20547;-82
2022/10/08 11:24:23;;;;;;;3.97;0.70;;;15.00;99.90;;;;;;5111539;28;20040;-82
2022/10/08 11:27:22;;;;;;;2.83;0.70;;;15.00;99.90;;;;;;5093549;28;20547;-82
2022/10/08 11:30:13;;;;;;;2.53;0.68;;;14.80;99.90;;;;;;5088905;28;20083;-82
2022/10/08 11:32:49;;;;;;;3.72;0.80;;;14.80;99.90;;;;;;5110520;28;20142;-82
2022/10/08 11:35:24;;;;;;;4.72;0.68;;;14.70;99.90;;;;;;5111321;28;20075;-82
2022/10/08 11:38:24;;;;;;;2.72;0.65;;;14.60;99.90;;;;;;5111459;28;20055;-82
2022/10/08 11:41:15;;;;;;;2.00;0.65;;;14.20;99.90;;;;;;5111197;28;20101;-82
2022/10/08 11:44:00;;;;;;;3.17;0.80;;;13.70;99.90;;;;;;5110795;28;20043;-82
2022/10/08 11:46:35;;;;;;;4.40;0.63;;;13.30;99.90;;;;;;5110755;28;20048;-82
2022/10/08 11:49:24;;;;;;;3.83;0.60;;;13.20;99.90;;;;;;5110778;28;20036;-82
2022/10/08 11:51:52;;;;;;;2.15;0.40;;;13.30;99.90;;;;;;5110985;28;20040;-82
2022/10/08 11:54:33;;;;;;;2.67;0.73;;;13.30;99.90;;;;;;5094761;28;20044;-82
2022/10/08 11:57:20;;;;;;;3.22;0.70;;;13.30;99.90;;;;;;5127907;28;20039;-82
2022/10/08 11:59:57;;;;;;;2.38;0.70;;;13.20;99.90;;;;;;5110813;28;20036;-82
2022/10/08 12:02:37;;;;;;;3.47;0.65;;;13.20;99.90;;;;;;5127439;28;20063;-82
2022/10/08 12:05:25;;;;;;;2.65;0.73;;;13.30;99.90;;;;;;5111038;28;20565;-82
2022/10/08 12:07:54;;;;;;;5.40;0.98;;;13.40;99.90;;;;;;5127778;28;20059;-83
2022/10/08 12:10:28;;;;;;;5.88;0.80;;;13.60;99.90;;;;;;5127550;28;20028;-82
2022/10/08 12:12:58;;;;;;;3.05;0.70;;;13.60;99.90;;;;;;5110894;28;20063;-82
2022/10/08 12:15:45;;;;;;;3.47;0.70;;;13.50;99.90;;;;;;5109731;28;20088;-82
2022/10/08 12:18:12;;;;;;;3.35;0.77;;;13.40;99.90;;;;;;5105475;28;20416;-82
2022/10/08 12:20:41;;;;;;;2.30;0.80;;;13.30;99.90;;;;;;5097595;28;20040;-82
2022/10/08 12:23:21;;;;;;;3.78;1.00;;;13.20;99.90;;;;;;5092102;28;20599;-82
2022/10/08 12:25:59;;;;;;;2.60;0.60;;;13.20;99.90;;;;;;5090240;28;20036;-82
2022/10/08 12:28:34;;;;;;;6.22;0.95;;;13.20;99.90;;;;;;5117346;28;20076;-82
2022/10/08 12:31:13;;;;;;;4.97;1.20;;;13.20;99.90;;;;;;5110082;28;20119;-83
2022/10/08 12:33:41;;;;;;;1.98;0.57;;;13.20;99.90;;;;;;5109744;28;20185;-82
2022/10/08 12:36:29;;;;;;;7.15;1.33;;;13.10;99.90;;;;;;5110171;28;20082;-82
2022/10/08 12:39:03;;;;;;;3.90;0.85;;;13.10;99.90;;;;;;5109977;28;20533;-82
2022/10/08 12:41:37;;;;;;;4.40;1.02;;;13.10;99.90;;;;;;5102185;28;20075;-83
2022/10/08 12:44:36;;;;;;;6.80;0.90;;;13.20;99.90;;;;;;5105167;28;20636;-82
2022/10/08 12:47:11;;;;;;;5.55;0.68;;;13.30;99.90;;;;;;5103339;28;20036;-84
2022/10/08 12:49:50;;;;;;;2.95;1.02;;;13.40;99.90;;;;;;5111228;28;20119;-88
2022/10/08 12:52:19;;;;;;;4.47;0.73;;;13.50;99.90;;;;;;5102966;28;20039;-86
2022/10/08 12:54:51;;;;;;;4.72;0.93;;;13.60;99.90;;;;;;5090918;28;20115;-87
2022/10/08 12:57:33;;;;;;;7.43;0.70;;;13.70;99.90;;;;;;5102060;28;20543;-87
2022/10/08 13:00:20;;;;;;;5.05;0.93;;;13.80;99.90;;;;;;5128347;28;20130;-90
2022/10/08 13:02:58;;;;;;;4.85;1.00;;;13.90;99.90;;;;;;5111213;28;20488;-90
2022/10/08 13:05:31;;;;;;;4.03;0.73;;;14.00;99.90;;;;;;5091956;28;20044;-88
2022/10/08 13:07:58;;;;;;;4.32;0.68;;;14.20;99.90;;;;;;5090154;28;20409;-85
2022/10/08 13:10:27;;;;;;;3.95;0.80;;;14.30;99.90;;;;;;5090617;28;20036;-87
2022/10/08 13:12:58;;;;;;;2.28;0.55;;;14.40;99.90;;;;;;5109770;28;20490;-85
2022/10/08 13:15:26;;;;;;;4.22;0.80;;;14.40;99.90;;;;;;5094138;28;20043;-94
2022/10/08 13:17:52;;;;;;;4.80;0.68;;;14.30;99.90;;;;;;5094246;28;20039;-92
2022/10/08 13:20:23;;;;;;;3.90;0.88;;;14.00;99.90;;;;;;5127796;28;20036;-87
2022/10/08 13:22:51;;;;;;;7.93;0.75;;;13.80;99.90;;;;;;5077436;28;20118;-87